Meteo Giornale » Osservazioni meteo Svizzera » Dubendorf

ore: 01:20 - Osservazioni Meteo Dubendorf
Lat. 47° 24' N Lon. 8° 39' E Alt. 448 metri s.l.m.

coperto Europe/Zurich

13 °C

Coperto

Temp. 24 Ore

11 °C

21 °C

Nord

0 Km/h

Dew point 12 °C

Umidità 93 %

Visibilità  10 Km

Il sole sorge alle ore 05:34

Il sole tramonta alle ore 21:11

Data e Ora Cielo e Fenomeni T °C DP °C Um. % Pres. hPa Vis. km Vento km/h
Oggi h: 01:20 coperto Coperto 13 12 93 1015 10 N 0
Ieri h: 23:50 sereno Sereno 12 11 93 1015 10 N 3.7
Ieri h: 23:20 sereno Sereno 12 9 81 1015 10 N 3.7
Ieri h: 22:50 sereno Sereno 14 10 76 1015 10 N 1.8
Ieri h: 22:20 sereno Sereno 15 11 76 1015 10 N 3.7
Ieri h: 21:50 sereno Sereno 15 11 76 1015 10 N 5.5
Ieri h: 21:20 poco_nuvoloso Poco Nuvoloso 18 11 63 1014 10 N 5.5
Ieri h: 20:50 poco_nuvoloso Poco Nuvoloso 18 8 51 1014 10 NO 7.4
Ieri h: 20:20 molto_nuvoloso Molto Nuvoloso 20 9 49 1014 10 NO 7.4
Ieri h: 19:50 molto_nuvoloso Molto Nuvoloso 20 10 52 1015 10 N/NO 7.4
Ieri h: 19:20 molto_nuvoloso Molto Nuvoloso 20 10 52 1015 10 O/NO 7.4
Ieri h: 18:50 poco_nuvoloso Poco Nuvoloso 21 10 49 1015 10 O 9.3
Ieri h: 18:20 nuvoloso Nuvoloso 20 10 52 1015 10 O/NO 9.3
Ieri h: 17:50 molto_nuvoloso Molto Nuvoloso 21 7 40 1015 10 O/SO 7.4
Ieri h: 17:20 molto_nuvoloso Molto Nuvoloso 21 10 49 1015 10 N 1.8
Ieri h: 16:50 poco_nuvoloso Poco Nuvoloso 21 9 46 1015 10 N 5.5
Ieri h: 16:20 poco_nuvoloso Poco Nuvoloso 21 8 43 1016 10 N 5.5
Ieri h: 15:50 nuvoloso Nuvoloso 21 9 46 1016 10 NE 7.4
Ieri h: 15:20 molto_nuvoloso Molto Nuvoloso 19 9 52 1016 10 N 3.7
Ieri h: 14:50 molto_nuvoloso Molto Nuvoloso 19 10 55 1016 10 N 5.5
Ieri h: 14:20 molto_nuvoloso Molto Nuvoloso 19 11 59 1016 10 N 3.7
Ieri h: 13:50 molto_nuvoloso Molto Nuvoloso 18 11 63 1017 10 S/SE 7.4
Ieri h: 13:20 molto_nuvoloso Molto Nuvoloso 18 11 63 1017 10 N 3.7
Ieri h: 12:50 molto_nuvoloso Molto Nuvoloso 18 11 63 1017 10 N 3.7
Ieri h: 12:20 nuvoloso Nuvoloso 17 11 67 1017 10 N 3.7
Ieri h: 11:50 poco_nuvoloso Poco Nuvoloso 18 12 67 1017 10 N 1.8
Ieri h: 11:20 poco_nuvoloso Poco Nuvoloso 17 11 67 1018 10 N 3.7
Ieri h: 10:50 poco_nuvoloso Poco Nuvoloso 16 11 72 1018 10 N 0
Ieri h: 10:20 poco_nuvoloso Poco Nuvoloso 16 12 77 1018 10 N 3.7
Ieri h: 09:50 molto_nuvoloso Molto Nuvoloso 14 12 87 1018 10 N 0
Ieri h: 09:20 molto_nuvoloso Molto Nuvoloso 14 13 93 1018 9 N 5.5
Ieri h: 08:20 foschia Foschia 13 13 100 1018 3 N 1.8
Ieri h: 07:50 foschia Foschia 12 12 100 1018 1 N 0
Ieri h: 07:20 foschia Foschia 12 12 100 1018 2 N 3.7
Ieri h: 06:50 foschia Foschia 12 12 100 1018 2 N 3.7
Ieri h: 05:20 foschia Foschia 12 12 100 1018 2 N 0
Ieri h: 04:50 nebbia Nebbia 11 11 100 1018 0.9 N 0
Ieri h: 04:20 foschia Foschia 12 12 100 1018 4 N 3.7
Ieri h: 03:50 foschia Foschia 12 12 100 1017 5 N 3.7
Ieri h: 03:20 coperto Coperto 12 12 100 1017 5 N 0
Ieri h: 02:50 foschia Foschia 12 12 100 1018 5 N 3.7
Ieri h: 02:20 foschia Foschia 12 12 100 1018 4 N 0
Ieri h: 01:50 foschia Foschia 12 12 100 1018 4 N 0